North Loup, Nebraska
Current Conditions -  °F | °C
As of 6:53 AM on Wednesday 26 Nov 2014 (Local Time) from KODX Reporting Station
Overcast Overcast  
Wind Chill: 11°   Ceiling: 1300
Heat Index: 27°   Visibility: 10mi
Dew Point: 21°   Wind: 29mph
Humidity: 78%   Direction: 330°NNW
Pressure: 30.06"   Gusts: 37mph
Location:  41.5°N, 98.77°W
Report Text: KODX 261253Z AUTO 33025G32KT 10SM OVC013 M03/M06 A3006 RMK AO2 PK WND 32037/1157 SLP200 T10281061
Loading
Personal Weather Stations






























Interactive Weather Map New forecast layout! Learn more

10-Day Weather Forecast

Advertisements
Track Severe Weather on mobile